createdAt,value
2019-03-21T00:01:19.137Z,0.90
2019-03-21T00:03:49.303Z,0.94
2019-03-21T00:06:17.613Z,0.99
2019-03-21T00:08:47.272Z,1.02
2019-03-21T00:11:38.331Z,1.08
2019-03-21T00:14:09.818Z,1.22
2019-03-21T00:16:38.202Z,1.28
2019-03-21T00:19:06.522Z,1.25
2019-03-21T00:21:34.894Z,1.16
2019-03-21T00:24:03.205Z,1.09
2019-03-21T00:26:31.885Z,0.78
2019-03-21T00:29:00.176Z,0.85
2019-03-21T00:31:28.504Z,1.00
2019-03-21T00:33:57.670Z,0.97
2019-03-21T00:36:26.072Z,0.89
2019-03-21T00:38:54.378Z,1.09
2019-03-21T00:41:22.684Z,1.09
2019-03-21T00:43:51.464Z,1.00
2019-03-21T00:46:20.156Z,0.84
2019-03-21T00:48:48.486Z,0.58
2019-03-21T00:51:16.782Z,0.66
2019-03-21T00:53:45.116Z,0.63
2019-03-21T00:56:13.780Z,0.50
2019-03-21T00:58:42.285Z,0.44
2019-03-21T01:01:11.057Z,0.58
2019-03-21T01:03:39.422Z,0.66
2019-03-21T01:06:07.742Z,0.66
2019-03-21T01:08:36.049Z,0.65
2019-03-21T01:11:04.393Z,0.52
2019-03-21T01:13:35.643Z,0.40
2019-03-21T01:16:04.102Z,0.54
2019-03-21T01:18:33.965Z,0.46
2019-03-21T01:21:02.269Z,0.44
2019-03-21T01:23:30.898Z,0.56
2019-03-21T01:26:05.835Z,0.56
2019-03-21T01:28:34.159Z,0.69
2019-03-21T01:31:02.470Z,0.70
2019-03-21T01:33:31.181Z,0.72
2019-03-21T01:35:59.557Z,0.50
2019-03-21T01:38:27.903Z,0.18
2019-03-21T01:41:02.044Z,0.14
2019-03-21T01:43:30.652Z,0.07
2019-03-21T01:45:59.427Z,-0.04
2019-03-21T01:48:27.681Z,0.06
2019-03-21T01:50:56.004Z,-0.05
2019-03-21T01:53:24.308Z,0.09
2019-03-21T01:55:52.638Z,-0.04
2019-03-21T01:58:20.940Z,0.03
2019-03-21T02:00:55.150Z,-0.05
2019-03-21T02:03:23.504Z,-0.07
2019-03-21T02:05:51.820Z,0.02
2019-03-21T02:08:20.143Z,-0.01
2019-03-21T02:10:48.466Z,-0.02
2019-03-21T02:13:16.827Z,-0.09
2019-03-21T02:15:46.477Z,-0.19
2019-03-21T02:18:15.199Z,-0.25
2019-03-21T02:20:43.851Z,-0.23
2019-03-21T02:23:12.245Z,0.24
2019-03-21T02:25:45.717Z,0.20
2019-03-21T02:28:14.046Z,-0.01
2019-03-21T02:30:45.529Z,-0.02
2019-03-21T02:33:20.420Z,-0.03
2019-03-21T02:35:48.793Z,0.01
2019-03-21T02:38:17.097Z,0.00
2019-03-21T02:40:46.777Z,-0.01
2019-03-21T02:43:15.534Z,-0.12
2019-03-21T02:45:44.163Z,-0.02
2019-03-21T02:48:12.919Z,0.09
2019-03-21T02:50:43.690Z,0.42
2019-03-21T02:53:12.373Z,0.46
2019-03-21T02:55:40.782Z,0.10
2019-03-21T02:58:09.158Z,0.06
2019-03-21T03:00:39.681Z,-0.04
2019-03-21T03:03:08.549Z,0.15
2019-03-21T03:05:38.003Z,0.18
2019-03-21T03:08:07.858Z,0.19
2019-03-21T03:10:44.805Z,0.06
2019-03-21T03:13:13.199Z,0.18
2019-03-21T03:15:42.541Z,0.18
2019-03-21T03:18:13.974Z,0.03
2019-03-21T03:20:42.607Z,0.04
2019-03-21T03:23:10.997Z,0.04
2019-03-21T03:25:39.301Z,-0.29
2019-03-21T03:28:25.591Z,-0.36
2019-03-21T03:30:56.245Z,-0.39
2019-03-21T03:33:24.585Z,-0.41
2019-03-21T03:35:52.987Z,-0.32
2019-03-21T03:38:21.349Z,-0.37
2019-03-21T03:40:53.116Z,-0.55
2019-03-21T03:43:21.426Z,-0.58
2019-03-21T03:45:50.074Z,-0.71
2019-03-21T03:48:19.923Z,-0.71
2019-03-21T03:50:48.437Z,-0.63
2019-03-21T03:53:16.878Z,-0.59
2019-03-21T03:55:45.261Z,-0.51
2019-03-21T03:58:31.122Z,-0.66
2019-03-21T04:00:59.679Z,-0.51
2019-03-21T04:03:28.998Z,-0.68
2019-03-21T04:05:57.566Z,-0.64
2019-03-21T04:08:25.963Z,-0.60
2019-03-21T04:10:56.437Z,-0.45
2019-03-21T04:13:24.759Z,-0.61
2019-03-21T04:15:54.110Z,-0.61
2019-03-21T04:18:24.948Z,-0.37
2019-03-21T04:20:59.183Z,-0.28
2019-03-21T04:23:27.493Z,-0.39
2019-03-21T04:26:02.270Z,-0.50
2019-03-21T04:28:30.803Z,-0.46
2019-03-21T04:30:59.204Z,-0.47
2019-03-21T04:33:27.822Z,-0.67
2019-03-21T04:35:56.165Z,-0.81
2019-03-21T04:38:25.249Z,-0.59
2019-03-21T04:40:53.778Z,-0.57
2019-03-21T04:43:22.889Z,-0.32
2019-03-21T04:46:02.591Z,-0.51
2019-03-21T04:48:21.398Z,-0.52
2019-03-21T04:50:49.811Z,-0.49
2019-03-21T04:53:18.110Z,-0.24
2019-03-21T04:55:46.419Z,-0.33
2019-03-21T04:58:14.750Z,-0.30
2019-03-21T05:00:51.080Z,-0.45
2019-03-21T05:03:24.993Z,-0.66
2019-03-21T05:05:53.304Z,-0.68
2019-03-21T05:08:21.612Z,-0.68
2019-03-21T05:10:49.941Z,-0.74
2019-03-21T05:13:18.253Z,-0.64
2019-03-21T05:15:49.092Z,-0.49
2019-03-21T05:18:32.808Z,-0.76
2019-03-21T05:21:04.008Z,-0.53
2019-03-21T05:23:32.627Z,-0.68
2019-03-21T05:26:00.951Z,-0.69
2019-03-21T05:28:29.296Z,-0.61
2019-03-21T05:31:22.167Z,-0.53
2019-03-21T05:33:50.496Z,-0.30
2019-03-21T05:36:18.797Z,-0.38
2019-03-21T05:38:47.152Z,-0.29
2019-03-21T05:41:15.477Z,-0.22
2019-03-21T05:43:47.312Z,-0.15
2019-03-21T05:46:25.965Z,0.03
2019-03-21T05:48:46.683Z,0.09
2019-03-21T05:51:15.005Z,0.14
2019-03-21T05:53:43.358Z,0.19
2019-03-21T05:56:11.746Z,0.26
2019-03-21T05:58:40.056Z,0.20
2019-03-21T06:01:13.413Z,0.27
2019-03-21T06:03:48.232Z,0.40
2019-03-21T06:06:19.722Z,0.39
2019-03-21T06:08:48.027Z,0.44
2019-03-21T06:11:16.410Z,0.57
2019-03-21T06:13:45.122Z,0.56
2019-03-21T06:16:13.435Z,0.69
2019-03-21T06:18:56.898Z,0.80
2019-03-21T06:21:40.457Z,0.92
2019-03-21T06:24:39.274Z,1.00
2019-03-21T06:27:29.299Z,1.05
2019-03-21T06:29:58.038Z,1.28
2019-03-21T06:32:27.403Z,1.33
2019-03-21T06:34:56.667Z,1.43
2019-03-21T06:37:28.472Z,1.45
2019-03-21T06:39:56.217Z,1.60
2019-03-21T06:42:24.681Z,1.70
2019-03-21T06:44:53.054Z,1.86
2019-03-21T06:47:21.532Z,1.85
2019-03-21T06:49:49.836Z,1.90
2019-03-21T06:52:18.418Z,1.93
2019-03-21T06:54:46.727Z,2.08
2019-03-21T06:57:17.236Z,2.09
2019-03-21T06:59:45.906Z,2.28
2019-03-21T07:02:14.303Z,2.39
2019-03-21T07:04:42.671Z,2.37
2019-03-21T07:07:10.975Z,2.54
2019-03-21T07:09:39.368Z,2.53
2019-03-21T07:12:07.743Z,2.66
2019-03-21T07:14:36.066Z,2.82
2019-03-21T07:17:04.374Z,2.90
2019-03-21T07:19:32.724Z,2.89
2019-03-21T07:22:01.328Z,3.03
2019-03-21T07:24:29.820Z,2.90
2019-03-21T07:26:58.136Z,3.12
2019-03-21T07:29:26.509Z,3.19
2019-03-21T07:31:54.836Z,3.18
2019-03-21T07:34:23.143Z,3.37
2019-03-21T07:36:51.436Z,3.40
2019-03-21T07:39:19.825Z,3.57
2019-03-21T07:41:48.129Z,3.64
2019-03-21T07:44:16.443Z,3.74
2019-03-21T07:46:44.746Z,3.95
2019-03-21T07:49:13.068Z,4.16
2019-03-21T07:51:41.375Z,4.16
2019-03-21T07:54:09.688Z,4.45
2019-03-21T07:56:37.998Z,4.54
2019-03-21T07:59:06.636Z,4.74
2019-03-21T08:01:35.024Z,4.91
2019-03-21T08:04:03.732Z,4.94
2019-03-21T08:06:32.399Z,4.98
2019-03-21T08:09:00.696Z,5.03
2019-03-21T08:11:29.018Z,5.08
2019-03-21T08:13:57.317Z,5.17
2019-03-21T08:16:25.632Z,5.15
2019-03-21T08:18:53.936Z,5.36
2019-03-21T08:21:22.270Z,5.55
2019-03-21T08:23:50.569Z,5.74
2019-03-21T08:26:18.872Z,5.89
2019-03-21T08:28:47.262Z,5.69
2019-03-21T08:31:15.932Z,5.98
2019-03-21T08:33:44.618Z,6.09
2019-03-21T08:36:12.984Z,6.30
2019-03-21T08:38:41.376Z,6.32
2019-03-21T08:41:09.752Z,6.39
2019-03-21T08:43:38.071Z,6.47
2019-03-21T08:46:06.529Z,6.56
2019-03-21T08:48:34.870Z,6.66
2019-03-21T08:51:08.285Z,6.74
2019-03-21T08:53:33.496Z,7.02
2019-03-21T08:56:01.981Z,6.94
2019-03-21T08:58:30.275Z,7.42
2019-03-21T09:00:58.599Z,7.58
2019-03-21T09:03:26.908Z,7.81
2019-03-21T09:05:55.416Z,7.84
2019-03-21T09:08:24.085Z,7.94
2019-03-21T09:10:52.402Z,7.74
2019-03-21T09:13:20.709Z,7.93
2019-03-21T09:15:49.029Z,8.02
2019-03-21T09:18:17.318Z,8.29
2019-03-21T09:20:45.701Z,8.42
2019-03-21T09:23:14.150Z,8.52
2019-03-21T09:25:42.481Z,8.68
2019-03-21T09:28:10.779Z,9.04
2019-03-21T09:30:39.525Z,9.61
2019-03-21T09:33:07.848Z,9.63
2019-03-21T09:35:36.146Z,9.42
2019-03-21T09:38:04.778Z,9.60
2019-03-21T09:40:33.083Z,10.16
2019-03-21T09:43:03.188Z,9.50
2019-03-21T09:45:31.756Z,9.82
2019-03-21T09:48:00.091Z,10.17
2019-03-21T09:50:30.347Z,9.81
2019-03-21T09:52:59.211Z,9.68
2019-03-21T09:55:27.478Z,9.92
2019-03-21T09:57:55.780Z,10.28
2019-03-21T10:00:35.343Z,10.01
2019-03-21T10:03:04.692Z,11.01
2019-03-21T10:05:33.458Z,11.13
2019-03-21T10:08:02.316Z,11.13
2019-03-21T10:10:34.603Z,11.43
2019-03-21T10:13:03.182Z,11.37
2019-03-21T10:15:31.911Z,11.68
2019-03-21T10:18:00.212Z,11.58
2019-03-21T10:20:28.583Z,11.50
2019-03-21T10:22:56.989Z,11.32
2019-03-21T10:25:26.757Z,11.33
2019-03-21T10:27:55.655Z,11.24
2019-03-21T10:30:29.829Z,12.34
2019-03-21T10:32:58.139Z,11.95
2019-03-21T10:35:26.459Z,12.34
2019-03-21T10:37:54.770Z,12.58
2019-03-21T10:40:23.095Z,12.62
2019-03-21T10:42:51.396Z,13.08
2019-03-21T10:45:19.698Z,12.48
2019-03-21T10:47:48.163Z,12.25
2019-03-21T10:50:29.013Z,12.95
2019-03-21T10:52:58.080Z,13.47
2019-03-21T10:55:26.383Z,13.36
2019-03-21T10:57:54.972Z,13.26
2019-03-21T11:00:23.567Z,13.66
2019-03-21T11:02:52.244Z,13.84
2019-03-21T11:05:23.105Z,13.34
2019-03-21T11:07:50.589Z,13.38
2019-03-21T11:10:18.909Z,14.28
2019-03-21T11:12:47.207Z,14.05
2019-03-21T11:15:15.599Z,14.15
2019-03-21T11:17:43.984Z,14.13
2019-03-21T11:20:18.091Z,14.26
2019-03-21T11:22:46.396Z,13.46
2019-03-21T11:25:14.695Z,13.90
2019-03-21T11:27:43.009Z,14.14
2019-03-21T11:30:16.227Z,14.86
2019-03-21T11:32:44.906Z,15.41
2019-03-21T11:35:13.206Z,14.99
2019-03-21T11:37:41.540Z,15.49
2019-03-21T11:40:09.903Z,14.57
2019-03-21T11:42:38.277Z,15.86
2019-03-21T11:45:09.592Z,17.52
2019-03-21T11:47:42.032Z,16.17
2019-03-21T11:50:09.111Z,17.03
2019-03-21T11:52:37.417Z,17.19
2019-03-21T11:55:07.659Z,17.34
2019-03-21T11:57:35.957Z,17.45
2019-03-21T12:00:10.859Z,17.80
2019-03-21T12:02:39.160Z,18.52
2019-03-21T12:05:08.196Z,18.05
2019-03-21T12:07:36.511Z,19.93
2019-03-21T12:10:07.151Z,20.49
2019-03-21T12:12:35.470Z,20.42
2019-03-21T12:15:06.615Z,19.62
2019-03-21T12:17:35.241Z,22.14
2019-03-21T12:20:08.266Z,21.78
2019-03-21T12:22:36.574Z,19.08
2019-03-21T12:25:06.884Z,19.64
2019-03-21T12:27:35.268Z,21.08
2019-03-21T12:30:08.937Z,20.24
2019-03-21T12:32:37.237Z,18.71
2019-03-21T12:35:07.836Z,18.17
2019-03-21T12:37:36.210Z,20.26
2019-03-21T12:40:07.977Z,19.40
2019-03-21T12:42:36.722Z,21.88
2019-03-21T12:45:09.961Z,21.38
2019-03-21T12:47:38.261Z,22.38
2019-03-21T12:50:08.627Z,18.57
2019-03-21T12:52:41.608Z,19.27
2019-03-21T12:55:07.720Z,20.94
2019-03-21T12:57:36.022Z,19.15
2019-03-21T13:00:06.434Z,21.60
2019-03-21T13:02:34.806Z,18.64
2019-03-21T13:05:04.382Z,22.19
2019-03-21T13:07:32.693Z,19.22
2019-03-21T13:10:00.986Z,19.28
2019-03-21T13:12:29.289Z,20.36
2019-03-21T13:14:57.679Z,19.49
2019-03-21T13:17:26.051Z,18.57
2019-03-21T13:19:54.380Z,20.43
2019-03-21T13:22:22.674Z,18.09
2019-03-21T13:24:50.991Z,19.32
2019-03-21T13:27:19.293Z,17.50
2019-03-21T13:29:47.590Z,18.59
2019-03-21T13:32:15.906Z,19.74
2019-03-21T13:34:44.200Z,20.88
2019-03-21T13:37:12.511Z,21.91
2019-03-21T13:39:40.808Z,19.78
2019-03-21T13:42:09.152Z,19.20
2019-03-21T13:44:37.455Z,19.31
2019-03-21T13:47:06.159Z,20.50
2019-03-21T13:49:34.537Z,21.41
2019-03-21T13:52:04.815Z,20.74
2019-03-21T13:54:32.865Z,20.20
2019-03-21T13:57:01.530Z,20.68
2019-03-21T13:59:29.927Z,20.24
2019-03-21T14:01:58.223Z,23.25
2019-03-21T14:04:26.879Z,22.76
2019-03-21T14:06:55.173Z,23.25
2019-03-21T14:09:23.510Z,20.73
2019-03-21T14:11:52.116Z,21.20
2019-03-21T14:14:20.716Z,21.88
2019-03-21T14:16:50.954Z,23.69
2019-03-21T14:19:19.423Z,23.98
2019-03-21T14:21:47.745Z,22.84
2019-03-21T14:24:16.176Z,23.25
2019-03-21T14:26:44.503Z,23.54
2019-03-21T14:29:13.154Z,21.04
2019-03-21T14:31:41.649Z,20.79
2019-03-21T14:34:10.332Z,23.00
2019-03-21T14:36:38.641Z,22.64
2019-03-21T14:39:07.905Z,24.72
2019-03-21T14:41:36.235Z,22.08
2019-03-21T14:44:07.044Z,22.40
2019-03-21T14:46:34.699Z,20.83
2019-03-21T14:49:03.098Z,21.91
2019-03-21T14:51:31.384Z,23.22
2019-03-21T14:53:59.765Z,23.83
2019-03-21T14:56:28.211Z,24.10
2019-03-21T14:58:56.533Z,22.02
2019-03-21T15:01:24.842Z,22.46
2019-03-21T15:03:53.340Z,22.80
2019-03-21T15:06:21.647Z,24.81
2019-03-21T15:08:50.230Z,22.11
2019-03-21T15:11:18.925Z,23.42
2019-03-21T15:13:47.295Z,23.55
2019-03-21T15:16:15.991Z,23.43
2019-03-21T15:18:44.289Z,23.87
2019-03-21T15:21:12.584Z,22.96
2019-03-21T15:23:41.228Z,22.84
2019-03-21T15:26:09.571Z,23.02
2019-03-21T15:28:38.312Z,24.86
2019-03-21T15:31:06.607Z,23.64
2019-03-21T15:33:34.922Z,23.92
2019-03-21T15:36:03.220Z,24.07
2019-03-21T15:38:31.837Z,23.72
2019-03-21T15:41:02.580Z,24.09
2019-03-21T15:43:31.267Z,23.04
2019-03-21T15:45:59.951Z,23.59
2019-03-21T15:48:28.259Z,21.47
2019-03-21T15:51:04.295Z,22.77
2019-03-21T15:53:26.593Z,21.88
2019-03-21T15:55:54.903Z,20.78
2019-03-21T15:58:23.203Z,20.52
2019-03-21T16:00:51.589Z,20.62
2019-03-21T16:03:19.886Z,20.73
2019-03-21T16:05:48.183Z,21.10
2019-03-21T16:08:16.501Z,19.97
2019-03-21T16:10:44.898Z,19.83
2019-03-21T16:13:13.586Z,18.83
2019-03-21T16:15:41.883Z,18.99
2019-03-21T16:18:10.196Z,19.30
2019-03-21T16:20:38.578Z,18.13
2019-03-21T16:23:07.313Z,18.93
2019-03-21T16:25:36.004Z,17.94
2019-03-21T16:28:04.369Z,18.74
2019-03-21T16:30:32.669Z,18.12
2019-03-21T16:33:00.990Z,18.67
2019-03-21T16:35:29.631Z,18.21
2019-03-21T16:37:57.955Z,18.16
2019-03-21T16:40:26.255Z,17.15
2019-03-21T16:42:54.558Z,17.86
2019-03-21T16:45:22.872Z,17.15
2019-03-21T16:47:51.175Z,17.54
2019-03-21T16:50:19.965Z,16.47
2019-03-21T16:52:48.262Z,16.24
2019-03-21T16:55:16.685Z,16.04
2019-03-21T16:57:45.060Z,15.53
2019-03-21T17:00:20.614Z,15.41
2019-03-21T17:02:49.616Z,15.32
2019-03-21T17:05:18.309Z,15.30
2019-03-21T17:07:46.692Z,14.70
2019-03-21T17:10:16.758Z,14.32
2019-03-21T17:12:45.108Z,14.01
2019-03-21T17:15:14.084Z,13.46
2019-03-21T17:17:42.783Z,13.29
2019-03-21T17:20:12.312Z,13.10
2019-03-21T17:22:40.650Z,12.87
2019-03-21T17:25:09.680Z,12.82
2019-03-21T17:27:38.053Z,12.60
2019-03-21T17:30:09.501Z,12.43
2019-03-21T17:32:37.767Z,12.41
2019-03-21T17:35:07.074Z,12.32
2019-03-21T17:37:35.653Z,12.29
2019-03-21T17:40:06.724Z,12.12
2019-03-21T17:42:35.059Z,12.08
2019-03-21T17:45:04.839Z,11.98
2019-03-21T17:47:33.699Z,11.80
2019-03-21T17:50:02.091Z,11.73
2019-03-21T17:52:30.489Z,11.65
2019-03-21T17:54:59.151Z,11.68
2019-03-21T17:57:34.282Z,11.54
2019-03-21T17:59:57.520Z,11.41
2019-03-21T18:02:25.915Z,11.22
2019-03-21T18:04:54.678Z,11.21
2019-03-21T18:07:23.531Z,11.23
2019-03-21T18:09:51.823Z,11.25
2019-03-21T18:12:20.135Z,10.97
2019-03-21T18:14:48.768Z,10.88
2019-03-21T18:17:17.073Z,10.83
2019-03-21T18:19:45.392Z,10.83
2019-03-21T18:22:13.763Z,10.65
2019-03-21T18:24:53.251Z,10.77
2019-03-21T18:27:12.247Z,10.75
2019-03-21T18:29:40.571Z,10.76
2019-03-21T18:32:08.872Z,10.77
2019-03-21T18:34:37.213Z,10.55
2019-03-21T18:37:05.992Z,10.50
2019-03-21T18:39:34.375Z,10.54
2019-03-21T18:42:02.693Z,10.60
2019-03-21T18:44:30.997Z,10.51
2019-03-21T18:46:59.322Z,10.42
2019-03-21T18:49:27.631Z,10.72
2019-03-21T18:51:56.147Z,10.34
2019-03-21T18:54:24.538Z,10.14
2019-03-21T18:56:53.007Z,10.05
2019-03-21T18:59:21.313Z,10.07
2019-03-21T19:01:58.581Z,10.01
2019-03-21T19:04:20.317Z,10.13
2019-03-21T19:06:48.763Z,10.06
2019-03-21T19:09:17.467Z,10.05
2019-03-21T19:11:45.783Z,10.22
2019-03-21T19:14:14.136Z,10.01
2019-03-21T19:16:42.454Z,9.99
2019-03-21T19:19:11.097Z,9.92
2019-03-21T19:21:39.423Z,9.91
2019-03-21T19:24:07.839Z,9.70
2019-03-21T19:26:36.146Z,9.61
2019-03-21T19:29:04.833Z,9.59
2019-03-21T19:31:33.141Z,9.72
2019-03-21T19:34:01.536Z,9.70
2019-03-21T19:36:29.839Z,9.84
2019-03-21T19:38:58.241Z,9.83
2019-03-21T19:41:26.538Z,9.68
2019-03-21T19:43:54.843Z,9.38
2019-03-21T19:46:23.234Z,9.65
2019-03-21T19:48:51.532Z,9.35
2019-03-21T19:51:19.977Z,9.46
2019-03-21T19:53:48.302Z,9.65
2019-03-21T19:56:17.369Z,9.63
2019-03-21T19:58:45.694Z,9.67
2019-03-21T20:01:14.006Z,9.57
2019-03-21T20:03:42.782Z,9.36
2019-03-21T20:06:11.470Z,9.55
2019-03-21T20:08:39.807Z,9.33
2019-03-21T20:11:08.123Z,9.08
2019-03-21T20:13:36.505Z,9.06
2019-03-21T20:16:05.354Z,8.94
2019-03-21T20:18:33.660Z,8.72
2019-03-21T20:21:02.066Z,8.76
2019-03-21T20:23:30.558Z,8.60
2019-03-21T20:25:58.877Z,8.43
2019-03-21T20:28:27.179Z,8.55
2019-03-21T20:30:55.562Z,8.35
2019-03-21T20:33:23.933Z,8.09
2019-03-21T20:35:52.301Z,7.98
2019-03-21T20:38:20.623Z,7.88
2019-03-21T20:40:48.915Z,7.80
2019-03-21T20:43:17.608Z,7.74
2019-03-21T20:45:45.901Z,7.76
2019-03-21T20:48:14.675Z,7.71
2019-03-21T20:50:43.169Z,7.59
2019-03-21T20:53:11.554Z,7.53
2019-03-21T20:55:39.866Z,7.52
2019-03-21T20:58:08.310Z,7.52
2019-03-21T21:00:38.165Z,7.47
2019-03-21T21:03:06.573Z,7.39
2019-03-21T21:05:34.925Z,7.33
2019-03-21T21:08:03.234Z,7.49
2019-03-21T21:10:31.604Z,7.23
2019-03-21T21:13:00.138Z,7.36
2019-03-21T21:15:28.455Z,7.32
2019-03-21T21:17:56.999Z,7.40
2019-03-21T21:20:25.592Z,7.35
2019-03-21T21:22:53.899Z,7.26
2019-03-21T21:25:22.272Z,7.24
2019-03-21T21:27:50.744Z,7.19
2019-03-21T21:30:20.944Z,7.06
2019-03-21T21:32:49.406Z,7.07
2019-03-21T21:35:17.785Z,7.10
2019-03-21T21:37:46.329Z,7.42
2019-03-21T21:40:16.743Z,7.47
2019-03-21T21:42:45.385Z,7.39
2019-03-21T21:45:16.147Z,7.44
2019-03-21T21:47:44.878Z,7.21
2019-03-21T21:50:17.521Z,7.06
2019-03-21T21:52:45.821Z,7.02
2019-03-21T21:55:14.491Z,7.01
2019-03-21T21:57:42.858Z,6.89
2019-03-21T22:00:23.226Z,6.95
2019-03-21T22:02:51.936Z,6.87
2019-03-21T22:05:20.337Z,6.84
2019-03-21T22:07:48.714Z,6.77
2019-03-21T22:10:17.276Z,6.67
2019-03-21T22:12:45.597Z,6.68
2019-03-21T22:15:17.161Z,6.62
2019-03-21T22:17:45.545Z,6.57
2019-03-21T22:20:17.769Z,6.71
2019-03-21T22:22:46.283Z,6.54
2019-03-21T22:25:14.961Z,6.65
2019-03-21T22:27:43.411Z,6.50
2019-03-21T22:30:16.799Z,6.45
2019-03-21T22:32:45.102Z,6.39
2019-03-21T22:35:13.707Z,6.33
2019-03-21T22:37:42.083Z,6.22
2019-03-21T22:40:16.710Z,6.22
2019-03-21T22:42:45.101Z,6.09
2019-03-21T22:45:17.258Z,5.98
2019-03-21T22:47:45.669Z,6.16
2019-03-21T22:50:17.387Z,6.17
2019-03-21T22:52:46.670Z,6.14
2019-03-21T22:55:15.604Z,6.15
2019-03-21T22:57:44.198Z,6.06
2019-03-21T23:00:20.500Z,6.15
2019-03-21T23:02:48.920Z,5.97
2019-03-21T23:05:17.580Z,5.90
2019-03-21T23:07:45.947Z,5.91
2019-03-21T23:10:14.801Z,5.95
2019-03-21T23:12:43.374Z,5.85
2019-03-21T23:15:13.612Z,5.69
2019-03-21T23:17:42.041Z,5.71
2019-03-21T23:20:12.368Z,5.64
2019-03-21T23:22:40.680Z,5.56
2019-03-21T23:25:10.116Z,5.54
2019-03-21T23:27:38.504Z,5.63
2019-03-21T23:30:17.926Z,5.47
2019-03-21T23:32:46.709Z,5.54
2019-03-21T23:35:15.411Z,5.55
2019-03-21T23:37:43.899Z,5.54
2019-03-21T23:40:14.222Z,5.49
2019-03-21T23:42:42.516Z,5.44
2019-03-21T23:45:12.518Z,5.41
2019-03-21T23:47:40.816Z,5.55
2019-03-21T23:50:11.772Z,5.33
2019-03-21T23:52:40.072Z,5.29
2019-03-21T23:55:09.252Z,5.43
2019-03-21T23:57:37.616Z,5.12
